sensor_id;sensor_type;location;lat;lon;timestamp;pressure;altitude;pressure_sealevel;temperature;humidity
77086;BME280;66014;53.134;18.006;2024-03-07T00:00:06;102294.55;;;1.52;73.92
77086;BME280;66014;53.134;18.006;2024-03-07T00:03:00;102293.27;;;1.50;73.85
77086;BME280;66014;53.134;18.006;2024-03-07T00:05:26;102293.90;;;1.48;74.01
77086;BME280;66014;53.134;18.006;2024-03-07T00:07:52;102296.08;;;1.46;74.10
77086;BME280;66014;53.134;18.006;2024-03-07T00:10:18;102294.35;;;1.46;74.22
77086;BME280;66014;53.134;18.006;2024-03-07T00:12:47;102295.77;;;1.46;74.40
77086;BME280;66014;53.134;18.006;2024-03-07T00:15:14;102295.80;;;1.45;74.44
77086;BME280;66014;53.134;18.006;2024-03-07T00:17:40;102298.52;;;1.43;74.22
77086;BME280;66014;53.134;18.006;2024-03-07T00:20:07;102295.32;;;1.41;74.41
77086;BME280;66014;53.134;18.006;2024-03-07T00:22:43;102293.78;;;1.40;74.41
77086;BME280;66014;53.134;18.006;2024-03-07T00:25:09;102293.53;;;1.38;74.51
77086;BME280;66014;53.134;18.006;2024-03-07T00:27:36;102292.92;;;1.37;74.44
77086;BME280;66014;53.134;18.006;2024-03-07T00:30:05;102294.00;;;1.36;74.61
77086;BME280;66014;53.134;18.006;2024-03-07T00:32:35;102291.45;;;1.35;74.46
77086;BME280;66014;53.134;18.006;2024-03-07T00:35:02;102294.49;;;1.33;74.55
77086;BME280;66014;53.134;18.006;2024-03-07T00:37:30;102294.89;;;1.32;74.74
77086;BME280;66014;53.134;18.006;2024-03-07T00:39:57;102294.58;;;1.32;74.74
77086;BME280;66014;53.134;18.006;2024-03-07T00:42:22;102297.94;;;1.31;74.87
77086;BME280;66014;53.134;18.006;2024-03-07T00:44:48;102295.42;;;1.29;74.87
77086;BME280;66014;53.134;18.006;2024-03-07T00:47:15;102291.30;;;1.27;74.73
77086;BME280;66014;53.134;18.006;2024-03-07T00:49:44;102292.96;;;1.26;74.78
77086;BME280;66014;53.134;18.006;2024-03-07T00:52:12;102293.93;;;1.24;74.79
77086;BME280;66014;53.134;18.006;2024-03-07T00:54:41;102293.77;;;1.24;74.85
77086;BME280;66014;53.134;18.006;2024-03-07T00:57:07;102291.82;;;1.21;74.95
77086;BME280;66014;53.134;18.006;2024-03-07T00:59:33;102292.46;;;1.18;75.15
77086;BME280;66014;53.134;18.006;2024-03-07T01:01:59;102292.91;;;1.17;75.09
77086;BME280;66014;53.134;18.006;2024-03-07T01:04:25;102291.06;;;1.16;75.10
77086;BME280;66014;53.134;18.006;2024-03-07T01:06:57;102294.78;;;1.14;75.28
77086;BME280;66014;53.134;18.006;2024-03-07T01:09:24;102293.11;;;1.13;75.43
77086;BME280;66014;53.134;18.006;2024-03-07T01:11:49;102291.95;;;1.11;75.36
77086;BME280;66014;53.134;18.006;2024-03-07T01:14:16;102291.33;;;1.10;75.47
77086;BME280;66014;53.134;18.006;2024-03-07T01:16:42;102290.88;;;1.08;75.36
77086;BME280;66014;53.134;18.006;2024-03-07T01:19:07;102287.66;;;1.06;75.38
77086;BME280;66014;53.134;18.006;2024-03-07T01:21:34;102285.98;;;1.05;75.55
77086;BME280;66014;53.134;18.006;2024-03-07T01:24:01;102288.33;;;1.03;75.37
77086;BME280;66014;53.134;18.006;2024-03-07T01:26:28;102286.02;;;1.01;75.58
77086;BME280;66014;53.134;18.006;2024-03-07T01:28:55;102285.77;;;0.99;75.64
77086;BME280;66014;53.134;18.006;2024-03-07T01:31:22;102289.63;;;0.99;75.69
77086;BME280;66014;53.134;18.006;2024-03-07T01:33:52;102286.16;;;0.98;75.71
77086;BME280;66014;53.134;18.006;2024-03-07T01:36:21;102284.09;;;0.98;75.65
77086;BME280;66014;53.134;18.006;2024-03-07T01:38:47;102287.27;;;0.97;75.74
77086;BME280;66014;53.134;18.006;2024-03-07T01:41:14;102287.11;;;0.97;75.64
77086;BME280;66014;53.134;18.006;2024-03-07T01:43:41;102283.98;;;0.96;75.70
77086;BME280;66014;53.134;18.006;2024-03-07T01:46:08;102286.98;;;0.96;75.78
77086;BME280;66014;53.134;18.006;2024-03-07T01:48:34;102282.96;;;0.96;75.81
77086;BME280;66014;53.134;18.006;2024-03-07T01:51:00;102283.54;;;0.95;75.62
77086;BME280;66014;53.134;18.006;2024-03-07T01:53:27;102282.69;;;0.94;75.63
77086;BME280;66014;53.134;18.006;2024-03-07T01:55:54;102281.83;;;0.94;75.83
77086;BME280;66014;53.134;18.006;2024-03-07T01:58:21;102285.89;;;0.93;75.82
77086;BME280;66014;53.134;18.006;2024-03-07T02:00:47;102283.48;;;0.93;75.91
77086;BME280;66014;53.134;18.006;2024-03-07T02:03:13;102284.21;;;0.92;75.95
77086;BME280;66014;53.134;18.006;2024-03-07T02:05:40;102279.55;;;0.91;76.07
77086;BME280;66014;53.134;18.006;2024-03-07T02:08:06;102282.45;;;0.88;76.09
77086;BME280;66014;53.134;18.006;2024-03-07T02:10:32;102281.67;;;0.87;76.07
77086;BME280;66014;53.134;18.006;2024-03-07T02:12:58;102279.14;;;0.85;76.01
77086;BME280;66014;53.134;18.006;2024-03-07T02:15:27;102280.09;;;0.83;76.17
77086;BME280;66014;53.134;18.006;2024-03-07T02:17:53;102276.34;;;0.82;76.17
77086;BME280;66014;53.134;18.006;2024-03-07T02:20:19;102277.30;;;0.80;76.25
77086;BME280;66014;53.134;18.006;2024-03-07T02:22:45;102275.61;;;0.78;76.54
77086;BME280;66014;53.134;18.006;2024-03-07T02:25:11;102274.95;;;0.78;76.42
77086;BME280;66014;53.134;18.006;2024-03-07T02:27:38;102274.16;;;0.76;76.34
77086;BME280;66014;53.134;18.006;2024-03-07T02:30:04;102273.25;;;0.73;76.43
77086;BME280;66014;53.134;18.006;2024-03-07T02:32:31;102272.12;;;0.72;76.62
77086;BME280;66014;53.134;18.006;2024-03-07T02:34:58;102272.70;;;0.71;76.56
77086;BME280;66014;53.134;18.006;2024-03-07T02:37:24;102272.05;;;0.69;76.67
77086;BME280;66014;53.134;18.006;2024-03-07T02:39:49;102272.34;;;0.68;76.63
77086;BME280;66014;53.134;18.006;2024-03-07T02:42:16;102272.42;;;0.66;76.54
77086;BME280;66014;53.134;18.006;2024-03-07T02:44:42;102271.77;;;0.64;76.77
77086;BME280;66014;53.134;18.006;2024-03-07T02:47:08;102275.30;;;0.64;76.70
77086;BME280;66014;53.134;18.006;2024-03-07T02:49:34;102276.59;;;0.63;76.87
77086;BME280;66014;53.134;18.006;2024-03-07T02:52:03;102273.67;;;0.61;76.57
77086;BME280;66014;53.134;18.006;2024-03-07T02:54:33;102279.33;;;0.61;76.79
77086;BME280;66014;53.134;18.006;2024-03-07T02:56:59;102277.54;;;0.58;76.56
77086;BME280;66014;53.134;18.006;2024-03-07T02:59:26;102278.47;;;0.57;76.73
77086;BME280;66014;53.134;18.006;2024-03-07T03:01:52;102277.67;;;0.55;76.88
77086;BME280;66014;53.134;18.006;2024-03-07T03:04:18;102278.42;;;0.54;77.06
77086;BME280;66014;53.134;18.006;2024-03-07T03:06:45;102277.23;;;0.53;77.02
77086;BME280;66014;53.134;18.006;2024-03-07T03:09:22;102273.27;;;0.52;77.08
77086;BME280;66014;53.134;18.006;2024-03-07T03:11:50;102275.08;;;0.51;77.06
77086;BME280;66014;53.134;18.006;2024-03-07T03:14:17;102274.75;;;0.51;77.33
77086;BME280;66014;53.134;18.006;2024-03-07T03:16:43;102274.80;;;0.49;77.10
77086;BME280;66014;53.134;18.006;2024-03-07T03:19:10;102280.77;;;0.49;77.29
77086;BME280;66014;53.134;18.006;2024-03-07T03:21:36;102279.40;;;0.48;77.41
77086;BME280;66014;53.134;18.006;2024-03-07T03:24:03;102282.91;;;0.48;77.33
77086;BME280;66014;53.134;18.006;2024-03-07T03:26:29;102283.66;;;0.47;77.43
77086;BME280;66014;53.134;18.006;2024-03-07T03:28:59;102285.23;;;0.47;77.33
77086;BME280;66014;53.134;18.006;2024-03-07T03:31:26;102279.88;;;0.45;77.64
77086;BME280;66014;53.134;18.006;2024-03-07T03:33:52;102282.02;;;0.45;77.50
77086;BME280;66014;53.134;18.006;2024-03-07T03:36:18;102283.45;;;0.44;77.55
77086;BME280;66014;53.134;18.006;2024-03-07T03:38:44;102281.54;;;0.44;77.77
77086;BME280;66014;53.134;18.006;2024-03-07T03:41:17;102282.81;;;0.43;77.86
77086;BME280;66014;53.134;18.006;2024-03-07T03:43:43;102281.66;;;0.42;77.59
77086;BME280;66014;53.134;18.006;2024-03-07T03:46:10;102282.55;;;0.41;77.57
77086;BME280;66014;53.134;18.006;2024-03-07T03:48:39;102283.47;;;0.40;77.72
77086;BME280;66014;53.134;18.006;2024-03-07T03:51:07;102288.34;;;0.40;77.64
77086;BME280;66014;53.134;18.006;2024-03-07T03:53:35;102284.38;;;0.39;77.68
77086;BME280;66014;53.134;18.006;2024-03-07T03:56:01;102285.77;;;0.39;77.58
77086;BME280;66014;53.134;18.006;2024-03-07T03:58:28;102283.71;;;0.38;77.78
77086;BME280;66014;53.134;18.006;2024-03-07T04:00:55;102281.17;;;0.37;77.81
77086;BME280;66014;53.134;18.006;2024-03-07T04:03:21;102278.23;;;0.36;77.92
77086;BME280;66014;53.134;18.006;2024-03-07T04:05:48;102273.54;;;0.36;77.85
77086;BME280;66014;53.134;18.006;2024-03-07T04:08:15;102278.10;;;0.36;77.94
77086;BME280;66014;53.134;18.006;2024-03-07T04:10:41;102278.48;;;0.35;78.05
77086;BME280;66014;53.134;18.006;2024-03-07T04:13:07;102276.27;;;0.34;77.94
77086;BME280;66014;53.134;18.006;2024-03-07T04:15:33;102274.06;;;0.32;77.91
77086;BME280;66014;53.134;18.006;2024-03-07T04:17:59;102268.90;;;0.31;78.03
77086;BME280;66014;53.134;18.006;2024-03-07T04:20:26;102276.09;;;0.30;78.09
77086;BME280;66014;53.134;18.006;2024-03-07T04:22:52;102273.54;;;0.29;78.20
77086;BME280;66014;53.134;18.006;2024-03-07T04:25:18;102275.14;;;0.28;78.21
77086;BME280;66014;53.134;18.006;2024-03-07T04:27:44;102279.38;;;0.27;78.28
77086;BME280;66014;53.134;18.006;2024-03-07T04:30:10;102283.63;;;0.26;78.27
77086;BME280;66014;53.134;18.006;2024-03-07T04:32:37;102282.65;;;0.24;78.24
77086;BME280;66014;53.134;18.006;2024-03-07T04:35:04;102286.20;;;0.23;78.31
77086;BME280;66014;53.134;18.006;2024-03-07T04:37:39;102290.59;;;0.22;78.43
77086;BME280;66014;53.134;18.006;2024-03-07T04:40:07;102287.70;;;0.21;78.35
77086;BME280;66014;53.134;18.006;2024-03-07T04:42:43;102287.73;;;0.20;78.62
77086;BME280;66014;53.134;18.006;2024-03-07T04:45:11;102287.73;;;0.20;78.58
77086;BME280;66014;53.134;18.006;2024-03-07T04:47:46;102287.75;;;0.20;78.39
77086;BME280;66014;53.134;18.006;2024-03-07T04:50:13;102287.23;;;0.20;78.56
77086;BME280;66014;53.134;18.006;2024-03-07T04:52:42;102289.14;;;0.20;78.49
77086;BME280;66014;53.134;18.006;2024-03-07T04:55:11;102291.84;;;0.18;78.52
77086;BME280;66014;53.134;18.006;2024-03-07T04:57:38;102293.09;;;0.18;78.67
77086;BME280;66014;53.134;18.006;2024-03-07T05:00:09;102291.44;;;0.16;78.56
77086;BME280;66014;53.134;18.006;2024-03-07T05:02:41;102294.96;;;0.15;78.58
77086;BME280;66014;53.134;18.006;2024-03-07T05:05:07;102294.65;;;0.14;78.63
77086;BME280;66014;53.134;18.006;2024-03-07T05:07:33;102294.70;;;0.13;78.78
77086;BME280;66014;53.134;18.006;2024-03-07T05:10:03;102295.45;;;0.12;78.67
77086;BME280;66014;53.134;18.006;2024-03-07T05:12:30;102301.59;;;0.11;78.83
77086;BME280;66014;53.134;18.006;2024-03-07T05:14:56;102301.48;;;0.10;79.08
77086;BME280;66014;53.134;18.006;2024-03-07T05:25:47;102310.09;;;0.09;79.13
77086;BME280;66014;53.134;18.006;2024-03-07T05:31:03;102309.05;;;0.09;79.03
77086;BME280;66014;53.134;18.006;2024-03-07T05:33:31;102311.65;;;0.09;79.39
77086;BME280;66014;53.134;18.006;2024-03-07T05:35:56;102314.58;;;0.10;79.13
77086;BME280;66014;53.134;18.006;2024-03-07T05:38:40;102315.67;;;0.13;79.11
77086;BME280;66014;53.134;18.006;2024-03-07T05:41:06;102313.30;;;0.14;79.11
77086;BME280;66014;53.134;18.006;2024-03-07T05:43:32;102313.43;;;0.15;79.44
77086;BME280;66014;53.134;18.006;2024-03-07T05:45:58;102311.79;;;0.17;79.23
77086;BME280;66014;53.134;18.006;2024-03-07T05:48:26;102312.04;;;0.19;79.17
77086;BME280;66014;53.134;18.006;2024-03-07T05:50:52;102316.64;;;0.22;79.35
77086;BME280;66014;53.134;18.006;2024-03-07T05:53:18;102313.89;;;0.25;79.24
77086;BME280;66014;53.134;18.006;2024-03-07T05:55:46;102317.06;;;0.27;79.22
77086;BME280;66014;53.134;18.006;2024-03-07T05:58:13;102316.83;;;0.29;79.18
77086;BME280;66014;53.134;18.006;2024-03-07T06:00:39;102317.05;;;0.32;79.29
77086;BME280;66014;53.134;18.006;2024-03-07T06:03:05;102322.61;;;0.36;79.39
77086;BME280;66014;53.134;18.006;2024-03-07T06:05:32;102319.25;;;0.40;79.10
77086;BME280;66014;53.134;18.006;2024-03-07T06:07:57;102323.26;;;0.44;79.15
77086;BME280;66014;53.134;18.006;2024-03-07T06:24:22;102335.84;;;1.01;78.69
77086;BME280;66014;53.134;18.006;2024-03-07T06:26:48;102333.64;;;1.20;78.42
77086;BME280;66014;53.134;18.006;2024-03-07T06:29:26;102334.77;;;1.42;77.91
77086;BME280;66014;53.134;18.006;2024-03-07T06:31:55;102336.95;;;1.64;77.87
77086;BME280;66014;53.134;18.006;2024-03-07T06:34:21;102338.20;;;1.86;77.30
77086;BME280;66014;53.134;18.006;2024-03-07T06:36:46;102340.52;;;2.12;77.04
77086;BME280;66014;53.134;18.006;2024-03-07T06:39:13;102340.31;;;2.34;76.54
77086;BME280;66014;53.134;18.006;2024-03-07T06:41:41;102339.75;;;2.56;75.99
77086;BME280;66014;53.134;18.006;2024-03-07T06:44:07;102338.98;;;2.79;75.62
77086;BME280;66014;53.134;18.006;2024-03-07T06:46:35;102343.02;;;3.03;75.18
77086;BME280;66014;53.134;18.006;2024-03-07T06:49:02;102342.16;;;3.26;74.66
77086;BME280;66014;53.134;18.006;2024-03-07T06:51:31;102345.75;;;3.46;74.20
77086;BME280;66014;53.134;18.006;2024-03-07T06:53:58;102343.34;;;3.68;73.86
77086;BME280;66014;53.134;18.006;2024-03-07T06:56:24;102340.64;;;3.92;73.46
77086;BME280;66014;53.134;18.006;2024-03-07T06:58:52;102336.83;;;4.16;72.98
77086;BME280;66014;53.134;18.006;2024-03-07T07:01:19;102340.41;;;4.40;72.65
77086;BME280;66014;53.134;18.006;2024-03-07T07:03:45;102338.42;;;4.62;72.04
77086;BME280;66014;53.134;18.006;2024-03-07T07:06:12;102338.23;;;4.84;71.78
77086;BME280;66014;53.134;18.006;2024-03-07T07:08:59;102342.87;;;5.12;71.23
77086;BME280;66014;53.134;18.006;2024-03-07T07:11:58;102343.41;;;5.48;70.77
77086;BME280;66014;53.134;18.006;2024-03-07T07:14:31;102343.88;;;5.87;69.69
77086;BME280;66014;53.134;18.006;2024-03-07T07:20:19;102348.10;;;6.60;67.98
77086;BME280;66014;53.134;18.006;2024-03-07T07:22:46;102348.92;;;6.87;67.17
77086;BME280;66014;53.134;18.006;2024-03-07T07:25:13;102349.50;;;7.12;66.70
77086;BME280;66014;53.134;18.006;2024-03-07T07:27:47;102349.99;;;7.41;66.34
77086;BME280;66014;53.134;18.006;2024-03-07T07:30:32;102347.77;;;7.71;65.72
77086;BME280;66014;53.134;18.006;2024-03-07T07:33:08;102346.41;;;8.00;65.24
77086;BME280;66014;53.134;18.006;2024-03-07T07:38:37;102347.24;;;8.60;63.59
77086;BME280;66014;53.134;18.006;2024-03-07T07:44:25;102347.19;;;9.14;62.81
77086;BME280;66014;53.134;18.006;2024-03-07T07:46:52;102345.61;;;9.36;62.60
77086;BME280;66014;53.134;18.006;2024-03-07T07:54:42;102345.30;;;10.16;60.52
77086;BME280;66014;53.134;18.006;2024-03-07T07:57:08;102341.52;;;10.40;59.75
77086;BME280;66014;53.134;18.006;2024-03-07T07:59:38;102339.09;;;10.61;59.42
77086;BME280;66014;53.134;18.006;2024-03-07T08:06:23;102335.30;;;11.23;58.15
77086;BME280;66014;53.134;18.006;2024-03-07T08:08:50;102336.77;;;11.42;57.66
77086;BME280;66014;53.134;18.006;2024-03-07T08:11:15;102336.13;;;11.62;57.27
77086;BME280;66014;53.134;18.006;2024-03-07T08:13:41;102327.83;;;11.84;57.01
77086;BME280;66014;53.134;18.006;2024-03-07T08:16:07;102326.92;;;12.06;56.60
77086;BME280;66014;53.134;18.006;2024-03-07T08:18:36;102325.26;;;12.26;55.86
77086;BME280;66014;53.134;18.006;2024-03-07T08:21:03;102325.37;;;12.43;54.74
77086;BME280;66014;53.134;18.006;2024-03-07T08:23:30;102324.63;;;12.62;54.32
77086;BME280;66014;53.134;18.006;2024-03-07T08:25:57;102319.91;;;12.77;53.90
77086;BME280;66014;53.134;18.006;2024-03-07T08:28:23;102321.13;;;12.87;52.84
77086;BME280;66014;53.134;18.006;2024-03-07T08:30:49;102315.63;;;12.91;52.54
77086;BME280;66014;53.134;18.006;2024-03-07T08:33:17;102315.80;;;12.94;52.32
77086;BME280;66014;53.134;18.006;2024-03-07T08:35:42;102316.88;;;13.03;52.28
77086;BME280;66014;53.134;18.006;2024-03-07T08:38:11;102317.01;;;13.16;51.93
77086;BME280;66014;53.134;18.006;2024-03-07T08:40:38;102316.96;;;13.27;51.55
77086;BME280;66014;53.134;18.006;2024-03-07T08:43:04;102316.81;;;13.40;50.42
77086;BME280;66014;53.134;18.006;2024-03-07T08:45:32;102317.82;;;13.50;50.28
77086;BME280;66014;53.134;18.006;2024-03-07T08:48:02;102317.45;;;13.62;49.77
77086;BME280;66014;53.134;18.006;2024-03-07T08:50:29;102322.41;;;13.78;49.68
77086;BME280;66014;53.134;18.006;2024-03-07T08:52:55;102325.50;;;13.92;48.78
77086;BME280;66014;53.134;18.006;2024-03-07T08:55:25;102321.39;;;13.98;47.70
77086;BME280;66014;53.134;18.006;2024-03-07T08:57:51;102322.73;;;13.87;47.30
77086;BME280;66014;53.134;18.006;2024-03-07T09:00:18;102316.41;;;13.84;47.32
77086;BME280;66014;53.134;18.006;2024-03-07T09:05:22;102316.48;;;13.81;46.47
77086;BME280;66014;53.134;18.006;2024-03-07T09:07:49;102319.00;;;13.78;45.53
77086;BME280;66014;53.134;18.006;2024-03-07T09:10:16;102318.45;;;13.76;46.24
77086;BME280;66014;53.134;18.006;2024-03-07T09:12:41;102315.80;;;13.90;46.45
77086;BME280;66014;53.134;18.006;2024-03-07T09:15:08;102313.05;;;14.02;45.33
77086;BME280;66014;53.134;18.006;2024-03-07T09:17:44;102313.42;;;14.10;45.89
77086;BME280;66014;53.134;18.006;2024-03-07T09:20:12;102314.86;;;14.31;45.66
77086;BME280;66014;53.134;18.006;2024-03-07T09:33:52;102321.23;;;14.94;43.26
77086;BME280;66014;53.134;18.006;2024-03-07T09:36:19;102322.77;;;15.02;42.69
77086;BME280;66014;53.134;18.006;2024-03-07T09:38:45;102326.96;;;15.06;42.02
77086;BME280;66014;53.134;18.006;2024-03-07T09:41:11;102323.60;;;15.16;42.49
77086;BME280;66014;53.134;18.006;2024-03-07T09:43:38;102322.23;;;15.30;41.64
77086;BME280;66014;53.134;18.006;2024-03-07T09:46:05;102318.65;;;15.43;41.82
77086;BME280;66014;53.134;18.006;2024-03-07T09:48:31;102319.88;;;15.51;38.83
77086;BME280;66014;53.134;18.006;2024-03-07T09:50:58;102322.05;;;15.17;38.26
77086;BME280;66014;53.134;18.006;2024-03-07T09:53:25;102325.16;;;14.87;38.27
77086;BME280;66014;53.134;18.006;2024-03-07T09:55:52;102320.90;;;14.71;39.33
77086;BME280;66014;53.134;18.006;2024-03-07T09:58:20;102324.27;;;14.71;38.62
77086;BME280;66014;53.134;18.006;2024-03-07T10:00:47;102326.50;;;14.52;37.91
77086;BME280;66014;53.134;18.006;2024-03-07T10:03:16;102329.84;;;14.39;38.73
77086;BME280;66014;53.134;18.006;2024-03-07T10:05:46;102327.14;;;14.38;38.98
77086;BME280;66014;53.134;18.006;2024-03-07T10:08:11;102325.06;;;14.45;39.28
77086;BME280;66014;53.134;18.006;2024-03-07T10:10:39;102326.30;;;14.59;38.89
77086;BME280;66014;53.134;18.006;2024-03-07T10:13:05;102324.21;;;14.70;38.75
77086;BME280;66014;53.134;18.006;2024-03-07T10:15:34;102325.51;;;14.87;38.84
77086;BME280;66014;53.134;18.006;2024-03-07T10:18:00;102321.95;;;15.05;38.43
77086;BME280;66014;53.134;18.006;2024-03-07T10:20:26;102317.54;;;15.22;37.97
77086;BME280;66014;53.134;18.006;2024-03-07T10:22:53;102319.63;;;15.39;37.67
77086;BME280;66014;53.134;18.006;2024-03-07T10:25:20;102319.94;;;15.49;37.28
77086;BME280;66014;53.134;18.006;2024-03-07T10:27:50;102322.06;;;15.51;36.47
77086;BME280;66014;53.134;18.006;2024-03-07T10:30:19;102322.53;;;15.39;35.75
77086;BME280;66014;53.134;18.006;2024-03-07T10:32:58;102317.13;;;15.11;35.86
77086;BME280;66014;53.134;18.006;2024-03-07T10:35:25;102316.55;;;14.83;35.86
77086;BME280;66014;53.134;18.006;2024-03-07T10:37:55;102307.73;;;14.70;36.74
77086;BME280;66014;53.134;18.006;2024-03-07T10:40:24;102308.63;;;14.67;37.28
77086;BME280;66014;53.134;18.006;2024-03-07T10:42:56;102307.95;;;14.76;37.32
77086;BME280;66014;53.134;18.006;2024-03-07T10:45:24;102313.11;;;14.93;37.32
77086;BME280;66014;53.134;18.006;2024-03-07T10:47:54;102309.68;;;15.11;37.16
77086;BME280;66014;53.134;18.006;2024-03-07T10:50:52;102312.19;;;15.17;37.05
77086;BME280;66014;53.134;18.006;2024-03-07T10:53:39;102309.70;;;15.32;37.04
77086;BME280;66014;53.134;18.006;2024-03-07T10:59:16;102303.64;;;15.55;36.52
77086;BME280;66014;53.134;18.006;2024-03-07T11:01:59;102306.81;;;15.62;36.61
77086;BME280;66014;53.134;18.006;2024-03-07T11:04:25;102300.08;;;15.52;35.90
77086;BME280;66014;53.134;18.006;2024-03-07T11:06:53;102300.23;;;15.46;37.10
77086;BME280;66014;53.134;18.006;2024-03-07T11:09:19;102293.76;;;15.65;36.96
77086;BME280;66014;53.134;18.006;2024-03-07T11:11:52;102290.48;;;15.69;36.46
77086;BME280;66014;53.134;18.006;2024-03-07T11:14:19;102290.67;;;15.85;36.70
77086;BME280;66014;53.134;18.006;2024-03-07T11:16:46;102294.89;;;15.87;35.76
77086;BME280;66014;53.134;18.006;2024-03-07T11:19:28;102288.67;;;15.80;36.01
77086;BME280;66014;53.134;18.006;2024-03-07T11:21:56;102289.58;;;15.88;36.14
77086;BME280;66014;53.134;18.006;2024-03-07T11:24:23;102285.36;;;15.87;35.42
77086;BME280;66014;53.134;18.006;2024-03-07T11:26:53;102288.75;;;15.76;36.06
77086;BME280;66014;53.134;18.006;2024-03-07T11:32:14;102282.03;;;15.74;35.24
77086;BME280;66014;53.134;18.006;2024-03-07T11:34:43;102282.90;;;15.65;36.12
77086;BME280;66014;53.134;18.006;2024-03-07T11:40:00;102276.37;;;15.70;35.66
77086;BME280;66014;53.134;18.006;2024-03-07T11:42:33;102273.04;;;15.76;35.69
77086;BME280;66014;53.134;18.006;2024-03-07T11:45:02;102267.63;;;15.87;35.49
77086;BME280;66014;53.134;18.006;2024-03-07T11:47:38;102265.11;;;16.00;35.27
77086;BME280;66014;53.134;18.006;2024-03-07T11:50:07;102262.42;;;16.08;35.31
77086;BME280;66014;53.134;18.006;2024-03-07T11:52:39;102260.33;;;16.13;35.40
77086;BME280;66014;53.134;18.006;2024-03-07T11:55:10;102255.56;;;16.19;34.42
77086;BME280;66014;53.134;18.006;2024-03-07T11:57:36;102256.89;;;16.09;35.17
77086;BME280;66014;53.134;18.006;2024-03-07T12:00:04;102257.40;;;16.20;34.88
77086;BME280;66014;53.134;18.006;2024-03-07T12:02:39;102247.27;;;16.24;34.52
77086;BME280;66014;53.134;18.006;2024-03-07T12:05:09;102250.20;;;16.14;34.84
77086;BME280;66014;53.134;18.006;2024-03-07T12:07:35;102246.25;;;16.11;34.76
77086;BME280;66014;53.134;18.006;2024-03-07T12:10:02;102241.89;;;16.13;34.01
77086;BME280;66014;53.134;18.006;2024-03-07T12:12:32;102239.00;;;15.89;34.50
77086;BME280;66014;53.134;18.006;2024-03-07T12:14:59;102235.98;;;15.84;34.72
77086;BME280;66014;53.134;18.006;2024-03-07T12:17:27;102234.44;;;15.74;33.58
77086;BME280;66014;53.134;18.006;2024-03-07T12:19:56;102235.77;;;15.45;35.10
77086;BME280;66014;53.134;18.006;2024-03-07T12:22:27;102233.81;;;15.43;35.08
77086;BME280;66014;53.134;18.006;2024-03-07T12:25:01;102237.96;;;15.30;35.44
77086;BME280;66014;53.134;18.006;2024-03-07T12:27:33;102237.16;;;15.26;35.71
77086;BME280;66014;53.134;18.006;2024-03-07T12:29:59;102232.86;;;15.24;35.50
77086;BME280;66014;53.134;18.006;2024-03-07T12:32:33;102234.38;;;15.11;35.53
77086;BME280;66014;53.134;18.006;2024-03-07T12:34:59;102229.79;;;14.91;35.61
77086;BME280;66014;53.134;18.006;2024-03-07T12:37:25;102225.73;;;14.88;35.95
77086;BME280;66014;53.134;18.006;2024-03-07T12:39:55;102224.49;;;14.99;36.30
77086;BME280;66014;53.134;18.006;2024-03-07T12:42:27;102223.79;;;15.02;36.05
77086;BME280;66014;53.134;18.006;2024-03-07T12:44:54;102224.86;;;15.02;35.85
77086;BME280;66014;53.134;18.006;2024-03-07T12:47:20;102221.17;;;14.84;36.07
77086;BME280;66014;53.134;18.006;2024-03-07T12:49:46;102215.84;;;14.80;36.43
77086;BME280;66014;53.134;18.006;2024-03-07T12:52:12;102217.38;;;14.86;35.88
77086;BME280;66014;53.134;18.006;2024-03-07T12:54:41;102210.91;;;14.83;36.14
77086;BME280;66014;53.134;18.006;2024-03-07T12:57:11;102211.11;;;14.81;35.96
77086;BME280;66014;53.134;18.006;2024-03-07T12:59:40;102208.58;;;14.68;36.31
77086;BME280;66014;53.134;18.006;2024-03-07T13:02:11;102203.27;;;14.58;35.85
77086;BME280;66014;53.134;18.006;2024-03-07T13:04:39;102202.41;;;14.37;36.21
77086;BME280;66014;53.134;18.006;2024-03-07T13:07:06;102204.08;;;14.23;36.40
77086;BME280;66014;53.134;18.006;2024-03-07T13:09:35;102198.75;;;14.03;36.21
77086;BME280;66014;53.134;18.006;2024-03-07T13:12:31;102200.27;;;13.87;36.43
77086;BME280;66014;53.134;18.006;2024-03-07T13:14:57;102198.80;;;13.67;36.13
77086;BME280;66014;53.134;18.006;2024-03-07T13:17:25;102192.27;;;13.52;36.47
77086;BME280;66014;53.134;18.006;2024-03-07T13:19:51;102187.69;;;13.46;36.94
77086;BME280;66014;53.134;18.006;2024-03-07T13:22:28;102187.18;;;13.46;36.98
77086;BME280;66014;53.134;18.006;2024-03-07T13:24:54;102186.73;;;13.48;37.47
77086;BME280;66014;53.134;18.006;2024-03-07T13:27:20;102182.26;;;13.50;37.10
77086;BME280;66014;53.134;18.006;2024-03-07T13:29:56;102178.47;;;13.42;37.30
77086;BME280;66014;53.134;18.006;2024-03-07T13:32:23;102175.65;;;13.26;36.98
77086;BME280;66014;53.134;18.006;2024-03-07T13:34:50;102171.01;;;13.06;36.99
77086;BME280;66014;53.134;18.006;2024-03-07T13:37:16;102170.88;;;12.88;37.35
77086;BME280;66014;53.134;18.006;2024-03-07T13:39:55;102171.13;;;12.86;37.58
77086;BME280;66014;53.134;18.006;2024-03-07T13:42:24;102164.72;;;12.91;37.81
77086;BME280;66014;53.134;18.006;2024-03-07T13:44:50;102165.80;;;12.94;37.71
77086;BME280;66014;53.134;18.006;2024-03-07T13:47:16;102159.68;;;12.88;37.73
77086;BME280;66014;53.134;18.006;2024-03-07T13:49:41;102163.27;;;12.77;37.93
77086;BME280;66014;53.134;18.006;2024-03-07T13:52:08;102157.98;;;12.71;37.63
77086;BME280;66014;53.134;18.006;2024-03-07T13:54:45;102156.09;;;12.69;37.45
77086;BME280;66014;53.134;18.006;2024-03-07T13:57:36;102158.59;;;12.64;37.70